Huvudsida
METAR-TAF:

METAR-TAF

Flygplatser :

Århus flygplats

Århus, Danmark

latitud: 56-18N, longitud: 010-37E, höjd: 23 m

Aktuellt väderrapport

Denna rapport gjordes för 27 minuter sedan, klockan 16:20 UTC
Vind 16 kt från ost
Temperatur 23°C
Fuktighet 47%
Tryck 1011 hPa
Sikt 10 km eller mer

METAR: EKAH 221620Z AUTO 10016KT 9999 NCD 23/11 Q1011

Tid: 18:47 (16:47 UTC)

Väderprognos

Denna rapport gjordes för 5 timmar och 32 minuter sedan, klockan 11:15 UTC
Prognos gäller från 22 kl. 12 UTC till 23 kl. 12 UTC
Vind 15 kt från ost
Sikt 10 km eller mer
Inga moln under 1 500 m eller inga cumulonimbus
Temporärt
från 22 kl. 12 UTC till 22 kl. 18 UTC
Vind 15 kt från ost i byarna ända upp till 28 kt
Blir
från 23 kl. 07 UTC till 23 kl. 10 UTC
Vind 5 kt från sydost
Temporärt
från 23 kl. 10 UTC till 23 kl. 12 UTC
Spridda moln på en höjd av 2500 ft, Cumulonimbus.

TAF: EKAH 221115Z 2212/2312 09015KT CAVOK TEMPO 2212/2218 10015G28KT BECMG 2307/2310 14005KT TEMPO 2310/2312 SCT025CB

Aktuella väderrapporter och prognoser från 4000 flygplatser (METAR- och TAF-rapporter).

De tillgängliga stationerna syns som gula och röda prickar på kartan.

För musen över prickarna för att se namnen på stationerna.

Klicka sedan för att få väderrapporter och prognoser.

För att ändra kartan: Klicka på de gröna knapparna med ett svart kors på för att zooma in; den gröna knappen med ett streck på för att zooma ut; eller på de gröna pilarna för angränsande kartor.


METAR-TAF: